ジュノー の空港の天気 - METARとTAF

ジュノー国際空港 ( PAJN / JNU ) - アメリカ アラスカ州ジュノー
飛行場実況気象(Metar)
観測時間04/21 08:53 AKDT (04/21 16:53 UTC)
風向・風速南東 8m/s
視程10km以上
天気現象弱い雨
少しの雲 雲底高度 1010m
全天の8割程度の雲 雲底高度 1520m
全天を覆う雲 雲底高度 2440m
気温5.6℃
湿度76%
気圧1008.6hPa
METARPAJN 211653Z 14015KT 10SM -RA FEW033 BKN050 OVC080 06/02 A2979 RMK AO2 RAB40 SLP086 P0000 T00560017
過去の天気等 Google飛行場航空写真 Wunderground天気予報

過去48時間のMETAR

飛行場予報(TAF)
発表時間: 4/21 06:00 AKDT (4/21 14:00 UTC)
予報対象時間: 21日6時 AKDT ~ 22日4時 AKDT
風向・風速東 6m/s
視程10km以上
天気現象弱い雨
全天の4割程度の雲 雲底高度 1220m
全天を覆う雲 雲底高度 1830m
21日8時 AKDT から
風向・風速東南東 9m/s 瞬間風速 14m/s
視程10km以上
天気現象弱い雨
全天の8割程度の雲 雲底高度 910m
全天を覆う雲 雲底高度 1830m
21日10時 AKDT ~ 21日14時 AKDT に一時的に
視程6440m
天気現象弱い雨 もや
全天を覆う雲 雲底高度 760m
22日1時 AKDT から
風向・風速東 9m/s 瞬間風速 14m/s
視程10km以上
天気現象弱い雨 もや
全天の4割程度の雲 雲底高度 910m
全天を覆う雲 雲底高度 1520m
PAJN 211400Z 2114/2212 10012KT P6SM -RA SCT040 OVC060 WS020/13030KT
FM211600 11017G27KT P6SM -RA BKN030 OVC060 WS020/14040KT
TEMPO 2118/2122 4SM -RA BR OVC025
FM220900 10018G28KT 6SM -RA BR SCT030 OVC050 WS020/15045KT